Time;durP1;ratioP1;P1;durP2;ratioP2;P2;SDS_P1;SDS_P2;PMS_P1;PMS_P2;Temp;Humidity;BMP_temperature;BMP_pressure;BME280_temperature;BME280_humidity;BME280_pressure;Samples;Min_cycle;Max_cycle;Signal;HPM_P1;HPM_P2
2021/04/01 00:00:29;;;;;;;59.20;31.57;;;19.90;41.00;;;;;;5075978;28;20469;-53
2021/04/01 00:02:55;;;;;;;60.23;33.63;;;19.80;41.10;;;;;;5067339;28;20444;-52
2021/04/01 00:05:24;;;;;;;61.93;28.87;;;19.80;41.40;;;;;;5075356;28;20491;-57
2021/04/01 00:07:50;;;;;;;37.87;20.77;;;20.00;42.20;;;;;;5067300;28;20501;-57
2021/04/01 00:10:19;;;;;;;42.40;22.93;;;20.50;44.00;;;;;;5073992;28;20462;-57
2021/04/01 00:12:46;;;;;;;46.83;23.20;;;20.70;43.50;;;;;;5074521;28;20408;-57
2021/04/01 00:15:16;;;;;;;48.33;24.17;;;20.90;43.50;;;;;;5073531;28;20434;-57
2021/04/01 00:17:44;;;;;;;39.80;22.93;;;21.00;43.20;;;;;;5073459;28;20452;-57
2021/04/01 00:20:16;;;;;;;48.90;24.33;;;21.00;43.40;;;;;;5074255;28;20480;-56
2021/04/01 00:22:43;;;;;;;52.73;24.00;;;21.10;42.70;;;;;;5074402;28;20429;-56
2021/04/01 00:25:12;;;;;;;47.40;24.70;;;21.10;43.10;;;;;;5073565;28;20441;-56
2021/04/01 00:27:40;;;;;;;42.03;23.83;;;21.20;42.70;;;;;;5071122;28;20442;-56
2021/04/01 00:30:09;;;;;;;44.97;23.53;;;21.10;42.50;;;;;;5065857;28;20439;-56
2021/04/01 00:32:41;;;;;;;46.30;24.47;;;21.20;42.30;;;;;;5071092;28;20426;-56
2021/04/01 00:35:10;;;;;;;43.50;25.33;;;21.20;42.30;;;;;;5073911;28;20460;-57
2021/04/01 00:37:38;;;;;;;43.33;23.63;;;21.20;42.20;;;;;;5073321;28;20409;-56
2021/04/01 00:40:07;;;;;;;44.83;25.70;;;21.20;41.90;;;;;;5073651;28;20473;-57
2021/04/01 00:42:35;;;;;;;44.80;24.70;;;21.20;41.50;;;;;;5063499;28;20439;-57
2021/04/01 00:45:04;;;;;;;44.93;24.23;;;21.30;41.70;;;;;;5073940;28;20438;-57
2021/04/01 00:47:35;;;;;;;44.60;25.77;;;21.30;41.70;;;;;;5073862;28;20444;-57
2021/04/01 00:50:06;;;;;;;42.90;23.43;;;21.30;41.40;;;;;;5072299;28;20426;-57
2021/04/01 00:52:33;;;;;;;52.83;27.30;;;21.30;41.30;;;;;;5073154;28;20446;-55
2021/04/01 00:55:00;;;;;;;49.17;27.77;;;21.10;40.80;;;;;;5073992;28;20720;-56
2021/04/01 00:57:27;;;;;;;51.50;28.20;;;20.90;41.20;;;;;;5074537;28;20497;-56
2021/04/01 00:59:54;;;;;;;51.37;28.80;;;20.70;40.70;;;;;;5069838;28;20587;-56
2021/04/01 01:02:21;;;;;;;56.00;30.17;;;20.50;40.40;;;;;;5074655;28;20503;-55
2021/04/01 01:04:48;;;;;;;51.97;30.53;;;20.50;40.10;;;;;;5071806;28;20469;-55
2021/04/01 01:07:16;;;;;;;53.03;29.57;;;20.30;39.80;;;;;;5074061;28;20423;-55
2021/04/01 01:09:43;;;;;;;57.93;30.90;;;20.20;40.10;;;;;;5071483;28;20432;-55
2021/04/01 01:12:10;;;;;;;65.40;32.53;;;20.10;40.20;;;;;;5062407;28;20473;-54
2021/04/01 01:14:37;;;;;;;58.13;30.03;;;20.10;40.00;;;;;;5073903;28;20488;-55
2021/04/01 01:17:04;;;;;;;54.83;29.90;;;20.00;40.00;;;;;;5073753;28;20440;-53
2021/04/01 01:19:34;;;;;;;56.40;30.00;;;20.00;40.20;;;;;;5073267;28;20465;-55
2021/04/01 01:22:01;;;;;;;57.13;30.90;;;19.90;40.00;;;;;;5074239;28;20488;-55
2021/04/01 01:24:29;;;;;;;54.23;29.43;;;19.90;40.00;;;;;;5073932;28;20536;-56
2021/04/01 01:26:55;;;;;;;58.10;31.27;;;19.90;40.10;;;;;;5072604;28;20457;-54
2021/04/01 01:29:23;;;;;;;59.83;30.00;;;19.80;39.80;;;;;;5067439;28;20519;-55
2021/04/01 01:31:50;;;;;;;58.67;30.17;;;19.90;39.90;;;;;;5072453;28;20513;-55
2021/04/01 01:34:17;;;;;;;61.00;31.70;;;19.90;39.90;;;;;;5059481;28;20514;-52
2021/04/01 01:36:44;;;;;;;60.50;30.87;;;19.70;39.40;;;;;;5053117;28;20434;-53
2021/04/01 01:39:11;;;;;;;59.40;31.70;;;19.70;39.50;;;;;;5055541;28;20514;-55
2021/04/01 01:41:39;;;;;;;56.53;30.60;;;19.70;39.30;;;;;;5059382;28;20474;-56
2021/04/01 01:44:06;;;;;;;58.40;31.17;;;19.70;39.40;;;;;;5069940;28;20537;-55
2021/04/01 01:46:33;;;;;;;58.67;31.43;;;19.70;39.60;;;;;;5072854;28;20480;-55
2021/04/01 01:49:00;;;;;;;56.30;29.40;;;19.60;40.00;;;;;;5074023;28;20544;-55
2021/04/01 01:51:27;;;;;;;54.40;30.40;;;19.70;39.90;;;;;;5071919;28;20533;-55
2021/04/01 01:53:54;;;;;;;57.73;30.10;;;19.70;40.20;;;;;;5064663;28;20477;-55
2021/04/01 01:56:21;;;;;;;58.23;30.47;;;19.60;40.40;;;;;;5060351;28;20462;-55
2021/04/01 01:58:49;;;;;;;54.03;29.80;;;19.60;40.30;;;;;;5073532;28;20510;-55
2021/04/01 02:01:17;;;;;;;56.30;29.53;;;19.70;40.30;;;;;;5073419;28;20503;-56
2021/04/01 02:03:44;;;;;;;51.97;29.10;;;19.60;40.30;;;;;;5074079;28;20445;-55
2021/04/01 02:06:11;;;;;;;56.87;29.40;;;19.50;40.00;;;;;;5073787;28;20462;-55
2021/04/01 02:08:38;;;;;;;58.13;29.63;;;19.50;39.90;;;;;;5073211;28;20458;-55
2021/04/01 02:11:05;;;;;;;57.27;29.40;;;19.50;39.70;;;;;;5073603;28;20441;-53
2021/04/01 02:13:33;;;;;;;57.73;31.10;;;19.50;39.60;;;;;;5073674;28;20430;-55
2021/04/01 02:16:00;;;;;;;57.27;31.27;;;19.40;39.50;;;;;;5075106;28;20473;-55
2021/04/01 02:18:28;;;;;;;53.27;29.27;;;19.30;39.60;;;;;;5078056;28;20521;-54
2021/04/01 02:20:57;;;;;;;57.73;30.27;;;19.40;39.50;;;;;;5077720;28;20507;-56
2021/04/01 02:23:24;;;;;;;54.73;30.07;;;19.30;39.80;;;;;;5077331;28;20503;-54
2021/04/01 02:25:51;;;;;;;57.53;30.60;;;19.30;39.30;;;;;;5077174;28;20533;-55
2021/04/01 02:28:19;;;;;;;59.30;31.60;;;19.40;38.80;;;;;;5077929;28;20492;-55
2021/04/01 02:30:48;;;;;;;59.80;30.40;;;19.30;38.80;;;;;;5077193;28;20440;-52
2021/04/01 02:33:16;;;;;;;59.80;30.63;;;19.30;39.10;;;;;;5077494;28;20503;-55
2021/04/01 02:35:43;;;;;;;57.10;30.47;;;19.30;39.10;;;;;;5076998;28;20479;-54
2021/04/01 02:38:10;;;;;;;58.20;30.93;;;19.30;39.20;;;;;;5077385;28;20507;-55
2021/04/01 02:40:37;;;;;;;59.10;30.20;;;19.30;38.80;;;;;;5076991;28;20534;-56
2021/04/01 02:43:04;;;;;;;59.97;31.57;;;19.30;38.90;;;;;;5077399;28;20507;-54
2021/04/01 02:45:31;;;;;;;54.73;31.40;;;19.20;38.70;;;;;;5076767;28;20528;-56
2021/04/01 02:47:57;;;;;;;60.10;30.93;;;19.30;38.90;;;;;;5077066;28;20484;-56
2021/04/01 02:50:25;;;;;;;54.60;29.70;;;19.20;38.90;;;;;;5076881;28;20457;-56
2021/04/01 02:52:52;;;;;;;57.93;31.07;;;19.30;39.10;;;;;;5077235;28;20514;-55
2021/04/01 02:55:19;;;;;;;55.47;29.77;;;19.30;38.90;;;;;;5076738;28;20441;-53
2021/04/01 02:57:46;;;;;;;57.77;31.20;;;19.30;39.00;;;;;;5077212;28;20468;-55
2021/04/01 03:00:16;;;;;;;59.53;31.20;;;19.30;38.90;;;;;;5076983;28;20485;-54
2021/04/01 03:02:45;;;;;;;55.60;29.90;;;19.20;38.80;;;;;;5076904;28;20524;-56
2021/04/01 03:05:12;;;;;;;63.87;30.60;;;19.20;39.10;;;;;;5076609;28;20442;-54
2021/04/01 03:07:40;;;;;;;57.67;30.33;;;19.10;39.30;;;;;;5076964;28;20442;-55
2021/04/01 03:10:08;;;;;;;54.30;29.53;;;19.10;39.40;;;;;;5076628;28;20492;-53
2021/04/01 03:12:35;;;;;;;60.67;31.43;;;19.00;39.40;;;;;;5077059;28;20469;-54
2021/04/01 03:15:02;;;;;;;57.27;30.67;;;18.90;39.40;;;;;;5076658;28;20541;-54
2021/04/01 03:17:29;;;;;;;56.33;30.87;;;18.90;39.60;;;;;;5076527;28;20445;-55
2021/04/01 03:19:56;;;;;;;60.10;31.87;;;18.90;39.80;;;;;;5076756;28;20502;-56
2021/04/01 03:22:23;;;;;;;60.27;31.67;;;18.80;39.40;;;;;;5076600;28;20438;-55
2021/04/01 03:24:51;;;;;;;64.07;32.90;;;18.80;39.40;;;;;;5076321;28;20480;-55
2021/04/01 03:27:17;;;;;;;64.33;32.93;;;18.90;39.40;;;;;;5076059;28;20469;-55
2021/04/01 03:30:02;;;;;;;62.10;31.83;;;18.90;39.30;;;;;;5076537;28;20545;-55
2021/04/01 03:32:29;;;;;;;57.03;31.23;;;18.90;39.20;;;;;;5076540;28;20465;-55
2021/04/01 03:34:56;;;;;;;62.97;32.87;;;18.90;39.20;;;;;;5075909;28;20527;-55
2021/04/01 03:37:23;;;;;;;68.40;33.77;;;18.90;39.10;;;;;;5076453;28;20521;-53
2021/04/01 03:39:51;;;;;;;64.40;33.73;;;18.90;39.00;;;;;;5076222;28;20477;-55
2021/04/01 03:42:18;;;;;;;64.00;33.93;;;18.90;39.30;;;;;;5076236;28;20438;-55
2021/04/01 03:44:45;;;;;;;69.73;33.20;;;18.90;39.30;;;;;;5076047;28;20529;-54
2021/04/01 03:47:12;;;;;;;70.60;33.23;;;18.90;39.40;;;;;;5076046;28;20521;-55
2021/04/01 03:49:39;;;;;;;58.27;30.90;;;18.90;39.70;;;;;;5075878;28;20485;-55
2021/04/01 03:52:07;;;;;;;62.33;32.50;;;18.90;39.90;;;;;;5076261;28;20521;-55
2021/04/01 03:54:34;;;;;;;61.53;31.40;;;19.00;39.90;;;;;;5075768;28;20445;-55
2021/04/01 03:57:02;;;;;;;62.27;33.10;;;19.00;40.10;;;;;;5076011;28;20438;-55
2021/04/01 03:59:35;;;;;;;62.00;32.20;;;18.90;40.00;;;;;;5075567;28;20456;-56
2021/04/01 04:02:31;;;;;;;63.17;33.33;;;18.90;40.10;;;;;;5075841;28;20457;-55
2021/04/01 04:05:07;;;;;;;61.70;31.60;;;18.90;39.80;;;;;;5075384;28;20533;-55
2021/04/01 04:08:01;;;;;;;64.70;32.67;;;18.90;39.90;;;;;;5075895;28;20520;-55
2021/04/01 04:10:39;;;;;;;70.83;33.77;;;19.00;40.10;;;;;;5075493;28;20438;-55
2021/04/01 04:13:13;;;;;;;68.13;33.30;;;18.90;40.10;;;;;;5075602;28;20470;-53
2021/04/01 04:15:40;;;;;;;66.13;33.20;;;18.90;40.00;;;;;;5075581;28;20516;-54
2021/04/01 04:18:07;;;;;;;78.53;36.17;;;18.90;40.20;;;;;;5075549;28;20469;-53
2021/04/01 04:20:33;;;;;;;75.63;36.10;;;18.90;40.20;;;;;;5075368;28;20473;-56
2021/04/01 04:23:01;;;;;;;70.37;35.87;;;19.00;40.30;;;;;;5075386;28;20495;-55
2021/04/01 04:25:28;;;;;;;75.47;35.07;;;18.90;40.20;;;;;;5075145;28;20520;-55
2021/04/01 04:28:09;;;;;;;62.73;32.73;;;18.90;40.50;;;;;;5075426;28;20468;-53
2021/04/01 04:30:37;;;;;;;78.40;37.30;;;18.90;41.00;;;;;;5075268;28;20437;-56
2021/04/01 04:33:04;;;;;;;77.77;36.90;;;18.90;40.50;;;;;;5075114;28;20437;-56
2021/04/01 04:35:31;;;;;;;76.83;37.20;;;18.90;40.40;;;;;;5074769;28;20524;-55
2021/04/01 04:37:59;;;;;;;86.13;40.20;;;18.90;40.50;;;;;;5074404;28;20469;-54
2021/04/01 04:40:26;;;;;;;82.10;38.27;;;18.90;40.30;;;;;;5074815;28;20504;-51
2021/04/01 04:42:53;;;;;;;89.30;40.30;;;18.90;40.20;;;;;;5074882;28;20434;-56
2021/04/01 04:45:20;;;;;;;88.50;42.77;;;18.90;40.00;;;;;;5075209;28;20480;-56
2021/04/01 04:47:48;;;;;;;85.20;40.63;;;18.80;40.20;;;;;;5074934;28;20458;-52
2021/04/01 04:50:15;;;;;;;98.60;46.17;;;18.80;40.30;;;;;;5075081;28;20545;-52
2021/04/01 04:52:42;;;;;;;97.80;46.30;;;18.80;40.80;;;;;;5074511;28;20495;-52
2021/04/01 04:55:10;;;;;;;100.07;44.50;;;18.70;40.30;;;;;;5074542;28;20441;-53
2021/04/01 04:57:42;;;;;;;92.83;44.23;;;18.70;40.20;;;;;;5074504;28;20476;-56
2021/04/01 05:05:54;;;;;;;96.03;42.73;;;18.80;40.80;;;;;;5074118;28;20441;-56
2021/04/01 05:08:21;;;;;;;101.90;46.20;;;18.70;41.00;;;;;;5074271;28;20438;-56
2021/04/01 05:10:49;;;;;;;97.97;46.30;;;18.60;40.70;;;;;;5074368;28;20472;-55
2021/04/01 05:13:16;;;;;;;111.70;49.50;;;18.50;40.70;;;;;;5074573;28;20518;-54
2021/04/01 05:15:47;;;;;;;108.00;48.83;;;18.40;40.80;;;;;;5074243;28;20441;-54
2021/04/01 05:18:16;;;;;;;105.33;48.27;;;18.40;41.00;;;;;;5074200;28;20465;-56
2021/04/01 05:20:44;;;;;;;114.33;52.27;;;18.30;41.30;;;;;;5072737;28;20513;-56
2021/04/01 05:23:20;;;;;;;108.60;51.10;;;18.40;41.20;;;;;;5068950;28;20509;-56
2021/04/01 05:25:47;;;;;;;109.83;49.93;;;18.20;41.20;;;;;;5074295;28;20480;-55
2021/04/01 05:28:22;;;;;;;119.77;55.07;;;18.30;41.70;;;;;;5074443;28;20450;-56
2021/04/01 05:31:05;;;;;;;108.43;51.17;;;18.30;41.70;;;;;;5055064;28;20431;-55
2021/04/01 05:33:34;;;;;;;114.27;52.33;;;18.40;42.10;;;;;;5053797;28;20469;-55
2021/04/01 05:36:04;;;;;;;109.60;51.73;;;18.40;42.00;;;;;;5053585;28;20477;-54
2021/04/01 05:38:32;;;;;;;119.13;54.20;;;18.50;42.50;;;;;;5054030;28;20506;-55
2021/04/01 05:40:59;;;;;;;109.97;52.43;;;18.40;42.10;;;;;;5053984;28;20573;-55
2021/04/01 05:43:27;;;;;;;114.80;51.40;;;18.30;42.30;;;;;;5053736;28;20534;-55
2021/04/01 05:45:57;;;;;;;117.43;54.50;;;18.40;42.50;;;;;;5053667;28;20438;-56
2021/04/01 05:48:28;;;;;;;106.83;50.40;;;18.30;42.50;;;;;;5053866;28;20512;-55
2021/04/01 05:51:19;;;;;;;119.30;53.60;;;18.20;42.70;;;;;;5053975;28;20442;-55
2021/04/01 05:59:38;;;;;;;118.70;54.40;;;18.40;43.00;;;;;;5033863;28;20468;-56
2021/04/01 06:02:16;;;;;;;114.60;51.33;;;18.40;43.00;;;;;;5053931;28;20470;-56
2021/04/01 06:04:45;;;;;;;115.40;55.00;;;18.40;43.30;;;;;;5053680;28;20478;-55
2021/04/01 06:07:17;;;;;;;117.90;56.20;;;18.40;43.50;;;;;;5053930;28;20477;-56
2021/04/01 06:09:47;;;;;;;105.10;51.17;;;18.30;43.60;;;;;;5053958;28;20474;-54
2021/04/01 06:12:14;;;;;;;105.27;51.00;;;18.40;43.80;;;;;;5053964;28;20469;-55
2021/04/01 06:15:01;;;;;;;115.00;54.73;;;18.50;44.30;;;;;;5053652;28;20474;-54
2021/04/01 06:17:32;;;;;;;111.70;52.00;;;18.40;44.00;;;;;;5053492;28;20435;-54
2021/04/01 06:19:59;;;;;;;95.77;49.67;;;18.50;44.30;;;;;;5053772;28;20465;-55
2021/04/01 06:22:28;;;;;;;100.77;47.13;;;18.60;44.60;;;;;;5053267;28;20474;-54
2021/04/01 06:24:55;;;;;;;93.63;47.50;;;18.60;44.70;;;;;;5053408;28;20474;-56
2021/04/01 06:27:26;;;;;;;98.57;48.97;;;18.60;44.60;;;;;;5053386;28;20534;-51
2021/04/01 06:33:02;;;;;;;94.13;47.90;;;18.50;44.90;;;;;;5012098;28;20535;-54
2021/04/01 06:35:31;;;;;;;89.33;44.73;;;18.40;45.50;;;;;;5046684;28;20469;-54
2021/04/01 06:38:20;;;;;;;86.00;42.20;;;18.40;45.30;;;;;;5053531;28;20466;-55
2021/04/01 06:40:49;;;;;;;75.67;37.97;;;18.30;45.50;;;;;;5053014;28;20474;-55
2021/04/01 06:43:44;;;;;;;61.40;32.20;;;18.30;45.70;;;;;;5053269;28;20500;-55
2021/04/01 06:46:10;;;;;;;62.93;31.30;;;18.30;45.50;;;;;;5052982;28;20423;-54
2021/04/01 06:51:23;;;;;;;51.00;25.93;;;18.30;45.40;;;;;;5030792;28;20471;-53
2021/04/01 06:53:58;;;;;;;42.70;22.97;;;18.40;45.30;;;;;;5053252;28;20427;-55
2021/04/01 06:56:49;;;;;;;41.20;21.03;;;18.30;44.90;;;;;;5053198;28;20427;-54
2021/04/01 06:59:23;;;;;;;43.93;22.73;;;18.20;44.70;;;;;;5053019;28;20467;-53
2021/04/01 07:02:13;;;;;;;38.03;20.07;;;18.20;45.30;;;;;;5054505;28;20490;-55
2021/04/01 07:04:41;;;;;;;37.73;20.03;;;18.20;45.00;;;;;;5056700;28;20503;-54
2021/04/01 07:07:14;;;;;;;37.13;20.00;;;18.30;45.20;;;;;;5056384;28;20520;-55
2021/04/01 07:09:54;;;;;;;36.00;17.60;;;18.40;45.00;;;;;;5056280;28;20537;-54
2021/04/01 07:12:23;;;;;;;32.53;16.43;;;18.50;44.70;;;;;;5056606;28;20457;-53
2021/04/01 07:14:50;;;;;;;28.87;14.57;;;18.50;44.60;;;;;;5056291;28;20477;-56
2021/04/01 07:17:25;;;;;;;28.53;13.23;;;18.50;44.60;;;;;;5056274;28;20573;-56
2021/04/01 07:20:18;;;;;;;28.60;12.43;;;18.60;44.60;;;;;;5056209;28;20534;-56
2021/04/01 07:48:04;;;;;;;14.90;4.40;;;19.60;43.10;;;;;;5017349;28;20476;-56
2021/04/01 07:50:37;;;;;;;10.30;4.60;;;19.70;43.10;;;;;;5055658;28;20470;-56
2021/04/01 07:53:03;;;;;;;12.40;4.47;;;19.70;43.10;;;;;;5055816;28;20484;-56
2021/04/01 07:55:34;;;;;;;8.90;4.20;;;19.80;43.40;;;;;;5055681;28;20446;-56
2021/04/01 07:58:21;;;;;;;12.30;4.80;;;20.10;43.20;;;;;;5056212;28;20434;-55
2021/04/01 08:00:52;;;;;;;14.20;5.03;;;20.20;43.50;;;;;;5055774;28;20479;-55
2021/04/01 08:03:52;;;;;;;12.87;4.97;;;20.10;43.10;;;;;;5055682;28;20473;-56
2021/04/01 08:06:11;;;;;;;13.00;5.50;;;20.10;43.60;;;;;;5054918;28;20448;-61
2021/04/01 08:08:39;;;;;;;13.97;5.03;;;19.80;43.50;;;;;;5055546;28;20442;-62
2021/04/01 08:11:08;;;;;;;10.07;5.50;;;20.00;44.10;;;;;;5055326;28;20442;-51
2021/04/01 08:13:38;;;;;;;11.37;4.70;;;20.20;43.70;;;;;;5055301;28;20535;-56
2021/04/01 08:16:07;;;;;;;15.77;4.93;;;20.20;43.00;;;;;;5055030;28;20548;-54
2021/04/01 08:18:36;;;;;;;12.33;5.50;;;20.20;42.80;;;;;;5055306;28;20454;-54
2021/04/01 08:21:05;;;;;;;11.43;5.20;;;20.50;43.70;;;;;;5055210;28;20477;-57
2021/04/01 08:23:58;;;;;;;12.00;5.03;;;20.50;43.20;;;;;;5054820;28;20438;-53
2021/04/01 08:26:57;;;;;;;10.53;5.20;;;20.40;43.10;;;;;;5054751;28;20445;-54
2021/04/01 08:30:38;;;;;;;10.87;5.30;;;20.80;43.30;;;;;;5055115;28;20449;-55
2021/04/01 08:36:01;;;;;;;12.63;4.67;;;21.30;42.30;;;;;;5054360;28;20453;-57
2021/04/01 08:38:48;;;;;;;12.90;5.40;;;21.40;42.00;;;;;;5054727;28;20431;-56
2021/04/01 08:41:49;;;;;;;12.37;6.27;;;21.60;42.00;;;;;;5054982;28;20480;-56
2021/04/01 08:44:58;;;;;;;11.10;5.43;;;22.10;41.60;;;;;;5054165;28;20429;-53
2021/04/01 08:47:50;;;;;;;15.17;5.90;;;22.20;41.00;;;;;;5054727;28;20433;-53
2021/04/01 08:50:26;;;;;;;9.57;5.80;;;22.20;40.80;;;;;;5055025;28;20450;-52
2021/04/01 08:53:16;;;;;;;11.03;5.37;;;22.40;40.60;;;;;;5054747;28;20433;-53
2021/04/01 08:55:47;;;;;;;17.13;6.03;;;22.40;41.30;;;;;;5054347;28;20488;-53
2021/04/01 08:58:20;;;;;;;13.07;6.63;;;22.30;40.90;;;;;;5054811;28;20442;-53
2021/04/01 09:00:47;;;;;;;9.47;5.13;;;22.30;41.40;;;;;;5054369;28;20425;-54
2021/04/01 09:03:18;;;;;;;6.83;5.50;;;22.20;40.80;;;;;;5054490;28;20463;-55
2021/04/01 09:05:53;;;;;;;10.00;5.40;;;21.90;41.30;;;;;;5054078;28;20477;-54
2021/04/01 09:08:22;;;;;;;11.63;4.87;;;21.50;41.60;;;;;;5053967;28;20525;-55
2021/04/01 09:10:52;;;;;;;11.50;5.63;;;21.60;41.50;;;;;;5054394;28;20471;-55
2021/04/01 09:13:26;;;;;;;8.53;5.50;;;21.70;42.30;;;;;;5054145;28;20506;-54
2021/04/01 09:15:56;;;;;;;9.27;5.23;;;21.70;41.80;;;;;;5053790;28;20449;-54
2021/04/01 09:18:25;;;;;;;9.10;5.17;;;21.80;42.00;;;;;;5054200;28;20508;-54
2021/04/01 09:20:53;;;;;;;8.17;4.90;;;22.00;41.50;;;;;;5053934;28;20442;-53
2021/04/01 09:23:38;;;;;;;9.90;4.73;;;21.90;41.60;;;;;;5053799;28;20458;-55
2021/04/01 09:26:06;;;;;;;7.47;5.00;;;21.80;41.50;;;;;;5053672;28;20398;-52
2021/04/01 09:28:34;;;;;;;9.60;4.77;;;21.70;42.00;;;;;;5054188;28;20442;-54
2021/04/01 09:31:02;;;;;;;8.40;4.57;;;21.70;41.80;;;;;;5053965;28;20457;-54
2021/04/01 09:33:31;;;;;;;15.40;4.87;;;21.80;41.70;;;;;;5054415;28;20445;-53
2021/04/01 09:36:12;;;;;;;11.87;5.30;;;22.20;41.20;;;;;;5053739;28;20468;-54
2021/04/01 09:38:40;;;;;;;9.80;4.73;;;22.10;40.90;;;;;;5054059;28;20444;-54
2021/04/01 09:41:07;;;;;;;9.90;5.00;;;21.90;40.70;;;;;;5053802;28;20552;-55
2021/04/01 09:43:34;;;;;;;11.20;5.10;;;21.90;40.90;;;;;;5053796;28;20435;-54
2021/04/01 09:46:10;;;;;;;9.80;5.70;;;21.70;40.80;;;;;;5053240;28;20499;-54
2021/04/01 09:48:41;;;;;;;9.17;5.23;;;21.70;40.80;;;;;;5053486;28;20417;-54
2021/04/01 09:51:18;;;;;;;7.20;4.50;;;21.50;41.50;;;;;;5053472;28;20438;-52
2021/04/01 09:53:52;;;;;;;9.57;4.40;;;21.70;40.90;;;;;;5053203;28;20434;-53
2021/04/01 09:56:24;;;;;;;9.87;4.67;;;22.00;41.10;;;;;;5053167;28;20500;-55
2021/04/01 09:58:52;;;;;;;10.00;4.63;;;22.10;40.60;;;;;;5053503;28;20474;-53
2021/04/01 10:01:30;;;;;;;10.90;4.53;;;22.30;40.30;;;;;;5053610;28;20540;-50
2021/04/01 10:04:06;;;;;;;7.37;4.90;;;22.30;40.40;;;;;;5053636;28;20461;-51
2021/04/01 10:06:38;;;;;;;9.60;5.93;;;22.90;40.50;;;;;;5053564;28;20405;-49
2021/04/01 10:09:13;;;;;;;8.90;4.87;;;23.20;40.20;;;;;;5053825;28;20431;-49
2021/04/01 10:11:43;;;;;;;5.80;4.90;;;23.30;39.70;;;;;;5053977;28;20422;-53
2021/04/01 10:14:11;;;;;;;6.30;4.00;;;23.60;39.30;;;;;;5053623;28;20446;-50
2021/04/01 10:16:49;;;;;;;6.73;4.17;;;23.30;38.30;;;;;;5053403;28;20405;-50
2021/04/01 10:19:18;;;;;;;8.73;4.63;;;23.30;39.00;;;;;;5053175;28;20457;-49
2021/04/01 10:21:45;;;;;;;7.13;4.00;;;23.70;39.30;;;;;;5053502;28;20540;-54
2021/04/01 10:24:21;;;;;;;14.83;4.53;;;23.80;38.50;;;;;;5053103;28;20413;-51
2021/04/01 10:26:50;;;;;;;7.60;4.70;;;23.80;39.20;;;;;;5053674;28;20438;-53
2021/04/01 10:29:20;;;;;;;8.33;4.13;;;23.60;38.60;;;;;;5053284;28;20435;-61
2021/04/01 10:31:48;;;;;;;6.60;4.60;;;23.60;38.40;;;;;;5053325;28;20481;-60
2021/04/01 10:34:34;;;;;;;9.83;4.30;;;23.50;38.50;;;;;;5053113;28;20420;-52
2021/04/01 10:37:04;;;;;;;7.10;4.07;;;23.30;38.80;;;;;;5054690;28;20456;-51
2021/04/01 10:39:32;;;;;;;7.27;4.50;;;23.10;38.60;;;;;;5057531;28;20469;-51
2021/04/01 10:42:00;;;;;;;6.00;4.73;;;23.00;38.70;;;;;;5056830;28;20474;-54
2021/04/01 10:44:27;;;;;;;7.47;4.17;;;23.00;38.40;;;;;;5056826;28;20503;-59
2021/04/01 10:46:54;;;;;;;11.63;4.27;;;23.00;38.60;;;;;;5056959;28;20462;-59
2021/04/01 10:49:22;;;;;;;22.10;11.90;;;23.10;39.10;;;;;;5057148;28;20433;-59
2021/04/01 10:51:51;;;;;;;15.13;4.80;;;23.20;38.20;;;;;;5057257;28;20500;-59
2021/04/01 10:54:22;;;;;;;13.20;5.60;;;23.40;38.20;;;;;;5056711;28;20447;-54
2021/04/01 10:56:52;;;;;;;10.00;5.20;;;23.50;38.90;;;;;;5056701;28;20504;-59
2021/04/01 10:59:40;;;;;;;6.00;4.57;;;23.60;38.10;;;;;;5057088;28;20422;-60
2021/04/01 11:02:13;;;;;;;10.87;4.47;;;24.00;37.70;;;;;;5056943;28;20474;-52
2021/04/01 11:04:41;;;;;;;6.17;4.40;;;23.90;37.40;;;;;;5056362;28;20463;-54
2021/04/01 11:07:08;;;;;;;6.97;4.27;;;23.80;36.70;;;;;;5056629;28;20434;-54
2021/04/01 11:09:35;;;;;;;9.03;4.03;;;24.00;37.20;;;;;;5056580;28;20451;-60
2021/04/01 11:12:14;;;;;;;4.50;3.60;;;23.90;36.60;;;;;;5056682;28;20483;-54
2021/04/01 11:14:49;;;;;;;6.60;3.70;;;23.70;36.60;;;;;;5056320;28;20416;-60
2021/04/01 11:17:21;;;;;;;9.97;4.43;;;23.50;36.50;;;;;;5056418;28;20490;-61
2021/04/01 11:19:49;;;;;;;8.10;3.93;;;23.70;37.40;;;;;;5057086;28;20409;-61
2021/04/01 11:22:17;;;;;;;9.30;3.80;;;24.20;36.80;;;;;;5056604;28;20550;-60
2021/04/01 11:24:44;;;;;;;5.93;3.50;;;24.50;35.60;;;;;;5056347;28;20431;-60
2021/04/01 11:27:12;;;;;;;7.27;3.83;;;24.50;35.60;;;;;;5056442;28;20417;-61
2021/04/01 11:29:40;;;;;;;4.93;4.03;;;24.40;36.30;;;;;;5056158;28;20453;-60
2021/04/01 11:32:14;;;;;;;6.23;3.83;;;24.40;36.10;;;;;;5055947;28;20522;-61
2021/04/01 11:34:42;;;;;;;5.93;3.77;;;24.40;37.40;;;;;;5056155;28;20488;-61
2021/04/01 11:37:10;;;;;;;4.63;3.30;;;24.40;37.00;;;;;;5055818;28;20448;-60
2021/04/01 11:39:39;;;;;;;4.57;3.30;;;24.40;36.40;;;;;;5055967;28;20522;-61
2021/04/01 11:42:09;;;;;;;8.47;3.60;;;24.80;35.30;;;;;;5058447;28;20505;-61
2021/04/01 11:44:37;;;;;;;4.37;3.30;;;25.20;34.70;;;;;;5060879;28;20504;-61
2021/04/01 11:47:17;;;;;;;5.63;3.10;;;25.70;35.00;;;;;;5063589;28;20444;-61
2021/04/01 11:49:44;;;;;;;7.03;3.27;;;26.20;33.50;;;;;;5067140;28;20435;-61
2021/04/01 11:52:11;;;;;;;3.03;2.83;;;26.20;33.00;;;;;;5064082;28;20427;-62
2021/04/01 11:54:39;;;;;;;4.63;3.30;;;26.40;32.40;;;;;;5072626;28;20415;-61
2021/04/01 11:57:19;;;;;;;5.77;3.30;;;26.50;32.20;;;;;;5075604;28;20409;-61
2021/04/01 11:59:59;;;;;;;4.37;3.03;;;26.10;33.00;;;;;;5075747;28;20408;-61
2021/04/01 12:02:27;;;;;;;6.30;3.20;;;25.90;33.00;;;;;;5073664;28;20458;-61
2021/04/01 12:04:55;;;;;;;6.03;3.00;;;25.80;33.10;;;;;;5075074;28;20430;-61
2021/04/01 12:07:22;;;;;;;2.97;2.70;;;25.60;33.40;;;;;;5075668;28;20528;-62
2021/04/01 12:09:50;;;;;;;7.60;3.60;;;25.20;33.10;;;;;;5074843;28;20405;-62
2021/04/01 12:12:30;;;;;;;3.73;2.73;;;24.80;34.40;;;;;;5075397;28;20483;-61
2021/04/01 12:14:57;;;;;;;5.50;2.87;;;24.60;33.80;;;;;;5075237;28;20451;-60
2021/04/01 12:17:35;;;;;;;5.17;3.17;;;24.30;33.90;;;;;;5075031;28;20481;-61
2021/04/01 12:20:09;;;;;;;3.90;2.63;;;24.00;35.60;;;;;;5075090;28;20408;-61
2021/04/01 12:22:37;;;;;;;3.70;2.40;;;23.80;34.90;;;;;;5075441;28;20475;-60
2021/04/01 12:25:08;;;;;;;4.77;3.00;;;23.50;35.30;;;;;;5075140;28;20438;-60
2021/04/01 12:27:35;;;;;;;4.77;2.77;;;23.40;35.70;;;;;;5075182;28;20446;-61
2021/04/01 12:30:03;;;;;;;4.60;2.70;;;23.10;36.20;;;;;;5075096;28;20444;-60
2021/04/01 12:32:32;;;;;;;5.93;2.70;;;22.90;35.80;;;;;;5074725;28;20544;-60
2021/04/01 12:35:11;;;;;;;11.03;2.47;;;22.90;36.70;;;;;;5074973;28;20448;-60
2021/04/01 12:37:38;;;;;;;5.10;4.20;;;22.80;36.80;;;;;;5069938;28;20467;-64
2021/04/01 12:40:12;;;;;;;7.70;4.50;;;23.40;41.10;;;;;;5066421;28;20494;-65
2021/04/01 12:42:39;;;;;;;7.30;4.60;;;23.90;41.30;;;;;;5075270;28;20523;-64
2021/04/01 12:45:20;;;;;;;10.60;4.50;;;24.10;41.30;;;;;;5074040;28;20423;-62
2021/04/01 12:47:47;;;;;;;8.20;5.17;;;24.10;41.40;;;;;;5075232;28;20449;-64
2021/04/01 12:50:15;;;;;;;8.00;4.57;;;24.30;41.70;;;;;;5074920;28;20416;-63
2021/04/01 12:52:43;;;;;;;7.63;4.57;;;24.40;41.70;;;;;;5074399;28;20508;-66
2021/04/01 12:55:15;;;;;;;5.23;4.70;;;24.30;41.80;;;;;;5074255;28;20424;-65
2021/04/01 12:57:42;;;;;;;6.03;4.23;;;24.50;42.10;;;;;;5074365;28;20549;-64
2021/04/01 13:00:14;;;;;;;7.80;4.23;;;24.30;42.00;;;;;;5073853;28;20455;-62
2021/04/01 13:02:41;;;;;;;5.47;4.53;;;24.40;42.20;;;;;;5074457;28;20538;-66
2021/04/01 13:05:14;;;;;;;8.40;5.27;;;24.40;42.50;;;;;;5074534;28;20426;-63
2021/04/01 13:07:51;;;;;;;8.83;4.70;;;24.30;42.50;;;;;;5074632;28;20422;-64
2021/04/01 13:10:39;;;;;;;6.40;4.30;;;24.30;42.50;;;;;;5074277;28;20451;-64
2021/04/01 13:13:07;;;;;;;6.97;4.47;;;24.40;42.40;;;;;;5074296;28;20416;-64
2021/04/01 13:15:34;;;;;;;8.10;4.30;;;24.40;42.70;;;;;;5074092;28;20442;-66
2021/04/01 13:18:01;;;;;;;7.50;4.33;;;24.40;42.30;;;;;;5074205;28;20450;-66
2021/04/01 13:20:28;;;;;;;6.30;4.23;;;24.30;42.90;;;;;;5070784;28;20448;-66
2021/04/01 13:23:09;;;;;;;5.20;4.43;;;24.30;42.30;;;;;;5074026;28;20568;-66
2021/04/01 13:25:36;;;;;;;7.03;4.57;;;24.50;42.00;;;;;;5058270;28;20457;-66
2021/04/01 13:28:04;;;;;;;10.37;4.10;;;24.40;41.90;;;;;;5053779;28;20414;-66
2021/04/01 13:30:31;;;;;;;10.43;4.30;;;24.40;41.90;;;;;;5053759;28;20453;-66
2021/04/01 13:33:04;;;;;;;6.70;4.10;;;24.40;41.80;;;;;;5053828;28;20498;-66
2021/04/01 13:35:35;;;;;;;9.10;4.50;;;24.50;41.80;;;;;;5053692;28;20417;-66
2021/04/01 13:38:06;;;;;;;12.70;4.30;;;24.60;41.70;;;;;;5054186;28;20435;-65